Time;durP1;ratioP1;P1;durP2;ratioP2;P2;SDS_P1;SDS_P2;PMS_P1;PMS_P2;Temp;Humidity;BMP_temperature;BMP_pressure;BME280_temperature;BME280_humidity;BME280_pressure;Samples;Min_cycle;Max_cycle;Signal;HPM_P1;HPM_P2
2023/11/28 00:00:09;;;;;;;7.18;1.65;;;13.10;95.30;;;;;;5095318;28;20032;-78
2023/11/28 00:02:35;;;;;;;11.23;2.42;;;13.10;95.00;;;;;;5094720;28;20063;-78
2023/11/28 00:05:01;;;;;;;8.25;2.00;;;13.10;95.30;;;;;;5094879;28;20024;-79
2023/11/28 00:07:30;;;;;;;10.15;2.20;;;13.10;95.40;;;;;;5094803;28;20114;-79
2023/11/28 00:09:56;;;;;;;12.25;2.45;;;13.10;95.40;;;;;;5094733;28;20036;-78
2023/11/28 00:12:24;;;;;;;14.40;2.40;;;13.10;95.30;;;;;;5094275;28;20134;-78
2023/11/28 00:14:50;;;;;;;11.25;2.53;;;13.10;95.50;;;;;;5094384;28;20028;-77
2023/11/28 00:17:15;;;;;;;11.05;2.55;;;13.10;95.50;;;;;;5094680;28;20039;-78
2023/11/28 00:19:41;;;;;;;9.23;2.60;;;13.10;95.50;;;;;;5094236;28;20039;-75
2023/11/28 00:22:07;;;;;;;13.40;2.63;;;13.10;95.60;;;;;;5076279;28;20131;-77
2023/11/28 00:24:32;;;;;;;11.35;2.85;;;13.10;95.50;;;;;;5093801;28;20534;-76
2023/11/28 00:26:58;;;;;;;10.20;2.55;;;13.10;95.70;;;;;;5093840;28;20070;-78
2023/11/28 00:29:24;;;;;;;11.45;2.63;;;13.10;95.60;;;;;;5094465;28;20028;-77
2023/11/28 00:31:50;;;;;;;12.05;2.80;;;13.10;95.50;;;;;;5094126;28;20408;-77
2023/11/28 00:34:15;;;;;;;11.85;2.13;;;13.10;95.60;;;;;;5094139;28;20038;-76
2023/11/28 00:36:41;;;;;;;10.02;2.55;;;13.10;95.70;;;;;;5093833;28;20447;-78
2023/11/28 00:39:07;;;;;;;11.68;2.67;;;13.10;95.70;;;;;;5094255;28;20027;-76
2023/11/28 00:41:33;;;;;;;13.63;2.72;;;13.10;95.80;;;;;;5094078;28;20131;-78
2023/11/28 00:43:58;;;;;;;9.93;2.25;;;13.10;95.70;;;;;;5093935;28;20477;-75
2023/11/28 00:46:24;;;;;;;14.55;3.15;;;13.10;95.60;;;;;;5094068;28;20545;-77
2023/11/28 00:48:50;;;;;;;12.63;2.42;;;13.10;95.80;;;;;;5093858;28;20065;-77
2023/11/28 00:51:16;;;;;;;10.60;3.05;;;13.10;95.80;;;;;;5102964;28;20036;-77
2023/11/28 00:53:41;;;;;;;13.52;2.53;;;13.10;95.80;;;;;;5114424;28;20051;-77
2023/11/28 00:56:08;;;;;;;12.43;2.63;;;13.10;95.90;;;;;;5099274;28;20036;-77
2023/11/28 00:58:35;;;;;;;13.57;3.10;;;13.10;95.60;;;;;;5094698;28;20035;-76
2023/11/28 01:01:01;;;;;;;12.52;2.80;;;13.10;95.90;;;;;;5093877;28;20028;-76
2023/11/28 01:03:26;;;;;;;14.38;3.47;;;13.10;95.90;;;;;;5093887;28;20036;-77
2023/11/28 01:05:52;;;;;;;17.02;3.58;;;13.10;95.90;;;;;;5093562;28;20055;-79
2023/11/28 01:08:18;;;;;;;16.10;3.03;;;13.10;95.90;;;;;;5093757;28;20046;-77
2023/11/28 01:10:43;;;;;;;14.38;3.40;;;13.10;96.00;;;;;;5093485;28;20516;-77
2023/11/28 01:13:09;;;;;;;11.65;2.90;;;13.10;95.90;;;;;;5075155;28;20052;-78
2023/11/28 01:15:35;;;;;;;11.40;2.78;;;13.10;96.00;;;;;;5093354;28;20029;-77
2023/11/28 01:18:00;;;;;;;19.25;3.80;;;13.10;96.00;;;;;;5093320;28;20511;-77
2023/11/28 01:20:26;;;;;;;14.75;3.08;;;13.10;96.10;;;;;;5093595;28;20065;-76
2023/11/28 01:22:52;;;;;;;20.50;3.97;;;13.10;96.10;;;;;;5074768;28;20089;-78
2023/11/28 01:25:18;;;;;;;20.67;3.78;;;13.10;96.30;;;;;;5092963;28;20031;-76
2023/11/28 01:27:44;;;;;;;16.38;3.40;;;13.20;96.20;;;;;;5092947;28;20093;-75
2023/11/28 01:30:12;;;;;;;18.48;3.40;;;13.20;96.30;;;;;;5092896;28;20028;-77
2023/11/28 01:32:37;;;;;;;19.50;3.60;;;13.20;96.00;;;;;;5074592;28;20044;-76
2023/11/28 01:35:04;;;;;;;18.80;3.63;;;13.20;96.30;;;;;;5093139;28;20028;-78
2023/11/28 01:37:29;;;;;;;14.20;3.25;;;13.30;96.20;;;;;;5074112;28;20131;-76
2023/11/28 01:39:55;;;;;;;14.25;3.28;;;13.30;96.40;;;;;;5092721;28;20089;-76
2023/11/28 01:42:21;;;;;;;19.27;3.03;;;13.30;96.40;;;;;;5092913;28;20064;-77
2023/11/28 01:44:46;;;;;;;18.70;3.50;;;13.30;96.50;;;;;;5092674;28;20020;-76
2023/11/28 01:47:12;;;;;;;15.80;3.50;;;13.30;96.50;;;;;;5090634;28;20044;-76
2023/11/28 01:49:38;;;;;;;19.02;3.53;;;13.30;96.40;;;;;;5112653;28;20048;-77
2023/11/28 01:52:09;;;;;;;16.70;4.20;;;13.30;96.50;;;;;;5113453;28;20522;-77
2023/11/28 01:54:35;;;;;;;15.02;3.50;;;13.30;96.40;;;;;;5112974;28;20036;-75
2023/11/28 01:57:02;;;;;;;23.00;3.90;;;13.30;96.50;;;;;;5112887;28;20343;-78
2023/11/28 01:59:31;;;;;;;13.65;3.53;;;13.30;96.70;;;;;;5113067;28;20036;-76
2023/11/28 02:01:57;;;;;;;15.10;3.33;;;13.30;96.70;;;;;;5113202;28;20024;-76
2023/11/28 02:04:23;;;;;;;17.33;3.95;;;13.30;96.60;;;;;;5112925;28;20086;-76
2023/11/28 02:06:49;;;;;;;23.38;3.47;;;13.30;96.70;;;;;;5112475;28;20457;-75
2023/11/28 02:09:15;;;;;;;20.67;3.40;;;13.30;96.80;;;;;;5112710;28;20028;-78
2023/11/28 02:11:41;;;;;;;20.52;4.55;;;13.30;96.60;;;;;;5112497;28;20042;-77
2023/11/28 02:14:07;;;;;;;16.27;3.47;;;13.30;96.70;;;;;;5112845;28;20460;-76
2023/11/28 02:16:33;;;;;;;14.18;3.50;;;13.30;96.80;;;;;;5113237;28;20035;-77
2023/11/28 02:18:58;;;;;;;13.88;2.97;;;13.20;96.70;;;;;;5112940;28;20027;-77
2023/11/28 02:21:24;;;;;;;22.23;3.63;;;13.20;96.80;;;;;;5112757;28;20050;-76
2023/11/28 02:23:50;;;;;;;17.55;3.97;;;13.20;96.80;;;;;;5112570;28;20027;-76
2023/11/28 02:26:23;;;;;;;18.75;4.05;;;13.20;96.90;;;;;;5112443;28;20036;-77
2023/11/28 02:28:49;;;;;;;8.37;2.37;;;13.10;96.30;;;;;;5112824;28;20043;-78
2023/11/28 02:31:15;;;;;;;19.85;3.97;;;13.10;96.90;;;;;;5112821;28;20032;-77
2023/11/28 02:33:40;;;;;;;15.52;3.65;;;13.10;96.90;;;;;;5112442;28;20031;-77
2023/11/28 02:36:07;;;;;;;22.42;3.42;;;13.00;96.90;;;;;;5112487;28;20051;-76
2023/11/28 02:38:32;;;;;;;17.20;3.35;;;13.00;96.80;;;;;;5112405;28;20384;-76
2023/11/28 02:40:58;;;;;;;17.45;3.40;;;13.00;96.90;;;;;;5112207;28;20035;-77
2023/11/28 02:43:24;;;;;;;18.52;4.25;;;13.00;97.00;;;;;;5112459;28;20140;-76
2023/11/28 02:45:50;;;;;;;17.52;4.53;;;12.90;97.10;;;;;;5112264;28;20032;-77
2023/11/28 02:48:15;;;;;;;19.58;4.05;;;12.90;97.00;;;;;;5112946;28;20059;-75
2023/11/28 02:50:41;;;;;;;18.05;3.50;;;12.90;97.10;;;;;;5115977;28;20052;-77
2023/11/28 02:53:08;;;;;;;11.70;2.90;;;12.80;97.10;;;;;;5116474;28;20106;-77
2023/11/28 02:55:33;;;;;;;13.40;3.85;;;12.90;97.20;;;;;;5116240;28;20045;-77
2023/11/28 02:58:00;;;;;;;20.50;4.07;;;12.80;97.10;;;;;;5116236;28;20028;-77
2023/11/28 03:00:26;;;;;;;17.95;3.85;;;12.80;97.20;;;;;;5116323;28;20036;-78
2023/11/28 03:02:51;;;;;;;15.32;3.17;;;12.70;97.10;;;;;;5116156;28;20031;-78
2023/11/28 03:05:17;;;;;;;17.95;3.53;;;12.70;97.10;;;;;;5116092;28;20157;-79
2023/11/28 03:07:43;;;;;;;14.27;3.72;;;12.80;97.10;;;;;;5097432;28;20146;-78
2023/11/28 03:10:09;;;;;;;18.77;4.03;;;12.70;97.20;;;;;;5115775;28;20036;-76
2023/11/28 03:12:35;;;;;;;12.77;3.00;;;12.70;97.20;;;;;;5097242;28;20055;-76
2023/11/28 03:15:01;;;;;;;12.38;3.65;;;12.70;97.10;;;;;;5115719;28;20051;-77
2023/11/28 03:17:27;;;;;;;18.05;3.38;;;12.70;97.20;;;;;;5115903;28;20459;-78
2023/11/28 03:19:53;;;;;;;13.02;2.80;;;12.70;97.00;;;;;;5115557;28;20119;-77
2023/11/28 03:22:19;;;;;;;14.27;2.92;;;12.60;97.10;;;;;;5115507;28;20485;-77
2023/11/28 03:24:46;;;;;;;18.92;3.33;;;12.60;97.00;;;;;;5097200;28;20031;-77
2023/11/28 03:27:12;;;;;;;12.73;2.58;;;12.60;97.40;;;;;;5115537;28;20048;-76
2023/11/28 03:29:38;;;;;;;13.48;2.70;;;12.60;97.20;;;;;;5097214;28;20123;-77
2023/11/28 03:32:05;;;;;;;14.13;3.22;;;12.50;97.10;;;;;;5101665;28;20051;-77
2023/11/28 03:34:30;;;;;;;14.95;3.13;;;12.50;96.70;;;;;;5120879;28;20030;-74
2023/11/28 03:36:59;;;;;;;15.65;3.47;;;12.50;96.80;;;;;;5139820;28;20023;-76
2023/11/28 03:39:25;;;;;;;16.05;3.28;;;12.50;96.20;;;;;;5136346;28;20039;-77
2023/11/28 03:41:51;;;;;;;14.40;3.15;;;12.50;96.60;;;;;;5115623;28;20030;-78
2023/11/28 03:44:17;;;;;;;14.77;3.33;;;12.50;96.50;;;;;;5115823;28;20110;-78
2023/11/28 03:46:43;;;;;;;15.23;2.95;;;12.50;96.60;;;;;;5115810;28;20035;-77
2023/11/28 03:49:09;;;;;;;15.40;3.92;;;12.50;96.50;;;;;;5115276;28;20444;-77
2023/11/28 03:51:36;;;;;;;15.77;4.20;;;12.40;96.70;;;;;;5115260;28;20027;-78
2023/11/28 03:54:02;;;;;;;17.00;3.40;;;12.40;96.40;;;;;;5115352;28;20114;-78
2023/11/28 03:56:28;;;;;;;17.40;3.05;;;12.40;96.40;;;;;;5114855;28;20028;-78
2023/11/28 03:58:55;;;;;;;16.40;3.35;;;12.40;96.30;;;;;;5114688;28;20032;-78
2023/11/28 04:01:21;;;;;;;17.17;3.15;;;12.40;96.30;;;;;;5115126;28;20028;-77
2023/11/28 04:03:47;;;;;;;18.13;2.83;;;12.30;96.20;;;;;;5115080;28;20027;-78
2023/11/28 04:06:12;;;;;;;18.55;3.30;;;12.30;96.10;;;;;;5096286;28;20031;-77
2023/11/28 04:08:38;;;;;;;22.98;3.20;;;12.30;96.10;;;;;;5096793;28;20096;-78
2023/11/28 04:11:05;;;;;;;15.20;3.13;;;12.30;96.00;;;;;;5114869;28;20092;-78
2023/11/28 04:13:31;;;;;;;19.27;3.75;;;12.30;95.90;;;;;;5114686;28;20052;-77
2023/11/28 04:15:57;;;;;;;17.10;2.83;;;12.40;96.00;;;;;;5114603;28;20034;-77
2023/11/28 04:18:23;;;;;;;13.95;2.83;;;12.40;95.80;;;;;;5114889;28;20395;-78
2023/11/28 04:20:49;;;;;;;20.60;3.72;;;12.40;95.80;;;;;;5115214;28;20034;-77
2023/11/28 04:23:14;;;;;;;16.10;3.10;;;12.40;95.70;;;;;;5114438;28;20370;-76
2023/11/28 04:25:40;;;;;;;21.35;4.07;;;12.40;95.60;;;;;;5114924;28;20110;-78
2023/11/28 04:28:06;;;;;;;21.85;3.28;;;12.40;95.50;;;;;;5115188;28;20043;-77
2023/11/28 04:30:32;;;;;;;22.40;3.33;;;12.40;95.50;;;;;;5095880;28;20081;-76
2023/11/28 04:32:58;;;;;;;14.10;3.35;;;12.40;95.50;;;;;;5114318;28;20567;-78
2023/11/28 04:35:23;;;;;;;21.88;3.05;;;12.40;95.40;;;;;;5113998;28;20028;-77
2023/11/28 04:37:49;;;;;;;22.77;3.15;;;12.40;95.40;;;;;;5114207;28;20526;-78
2023/11/28 04:40:15;;;;;;;19.45;3.83;;;12.40;95.30;;;;;;5114029;28;20476;-76
2023/11/28 04:42:40;;;;;;;19.75;3.30;;;12.40;95.20;;;;;;5113844;28;20122;-76
2023/11/28 04:45:09;;;;;;;15.10;3.05;;;12.50;95.20;;;;;;5113944;28;20061;-78
2023/11/28 04:47:35;;;;;;;15.50;3.35;;;12.50;95.10;;;;;;5113949;28;20035;-78
2023/11/28 04:50:01;;;;;;;20.35;3.83;;;12.50;95.20;;;;;;5113604;28;20103;-76
2023/11/28 04:52:27;;;;;;;22.60;3.50;;;12.50;95.20;;;;;;5113841;28;20056;-76
2023/11/28 04:54:52;;;;;;;15.70;3.35;;;12.50;95.20;;;;;;5113992;28;20570;-78
2023/11/28 04:57:18;;;;;;;18.95;3.45;;;12.50;95.20;;;;;;5114288;28;20481;-78
2023/11/28 04:59:44;;;;;;;22.90;4.28;;;12.50;95.10;;;;;;5114230;28;20081;-78
2023/11/28 05:02:09;;;;;;;20.98;3.45;;;12.60;95.10;;;;;;5095833;28;20035;-72
2023/11/28 05:04:35;;;;;;;16.77;3.38;;;12.60;95.20;;;;;;5114260;28;20039;-78
2023/11/28 05:07:01;;;;;;;15.40;3.58;;;12.60;95.10;;;;;;5114100;28;20147;-78
2023/11/28 05:09:27;;;;;;;22.17;3.88;;;12.60;95.10;;;;;;5114367;28;20034;-77
2023/11/28 05:11:53;;;;;;;22.33;3.50;;;12.60;95.10;;;;;;5112747;28;20031;-76
2023/11/28 05:14:19;;;;;;;17.92;3.70;;;12.60;95.30;;;;;;5113869;28;20100;-76
2023/11/28 05:16:45;;;;;;;21.48;3.90;;;12.60;95.10;;;;;;5113535;28;20449;-78
2023/11/28 05:19:11;;;;;;;18.15;3.78;;;12.60;95.50;;;;;;5113442;28;20078;-79
2023/11/28 05:21:37;;;;;;;20.73;3.85;;;12.60;95.20;;;;;;5113291;28;20427;-78
2023/11/28 05:24:03;;;;;;;16.98;3.80;;;12.60;95.20;;;;;;5113282;28;20050;-76
2023/11/28 05:26:28;;;;;;;20.95;4.13;;;12.60;95.30;;;;;;5112926;28;20028;-78
2023/11/28 05:28:54;;;;;;;23.30;3.92;;;12.60;95.30;;;;;;5113270;28;20123;-77
2023/11/28 05:31:20;;;;;;;19.65;3.80;;;12.70;95.20;;;;;;5113284;28;20056;-76
2023/11/28 05:33:45;;;;;;;19.58;3.60;;;12.70;95.20;;;;;;5113251;28;20111;-78
2023/11/28 05:36:11;;;;;;;23.50;4.15;;;12.70;95.20;;;;;;5113213;28;20028;-77
2023/11/28 05:38:37;;;;;;;23.17;3.83;;;12.70;95.10;;;;;;5113320;28;20059;-77
2023/11/28 05:41:03;;;;;;;19.38;3.65;;;12.70;95.10;;;;;;5113224;28;20376;-78
2023/11/28 05:43:30;;;;;;;17.52;3.53;;;12.70;95.10;;;;;;5094750;28;20043;-78
2023/11/28 05:45:56;;;;;;;19.98;4.10;;;12.70;95.20;;;;;;5113204;28;20028;-78
2023/11/28 05:48:21;;;;;;;17.52;4.05;;;12.70;95.10;;;;;;5112973;28;20504;-78
2023/11/28 05:50:47;;;;;;;24.90;4.53;;;12.70;95.10;;;;;;5113241;28;20584;-77
2023/11/28 05:53:13;;;;;;;17.17;3.38;;;12.70;95.30;;;;;;5113213;28;20039;-77
2023/11/28 05:55:39;;;;;;;27.92;4.13;;;12.70;95.10;;;;;;5113007;28;20362;-76
2023/11/28 05:58:05;;;;;;;16.42;3.72;;;12.70;95.20;;;;;;5113052;28;20058;-77
2023/11/28 06:00:33;;;;;;;18.92;3.60;;;12.70;95.50;;;;;;5095042;28;20026;-78
2023/11/28 06:02:59;;;;;;;22.88;4.32;;;12.70;95.20;;;;;;5114197;28;20464;-79
2023/11/28 06:05:25;;;;;;;21.50;4.40;;;12.70;95.30;;;;;;5113143;28;20099;-77
2023/11/28 06:07:51;;;;;;;19.13;3.80;;;12.80;95.30;;;;;;5094634;28;20047;-78
2023/11/28 06:10:16;;;;;;;12.10;3.40;;;12.80;95.40;;;;;;5113004;28;20038;-79
2023/11/28 06:12:42;;;;;;;22.30;3.63;;;12.80;95.40;;;;;;5112522;28;20043;-77
2023/11/28 06:15:08;;;;;;;17.95;3.80;;;12.80;95.40;;;;;;5112982;28;20031;-78
2023/11/28 06:17:34;;;;;;;24.00;4.30;;;12.80;95.30;;;;;;5112576;28;20039;-79
2023/11/28 06:20:00;;;;;;;20.08;4.78;;;12.80;95.50;;;;;;5112672;28;20020;-78
2023/11/28 06:22:26;;;;;;;14.57;3.55;;;12.80;95.50;;;;;;5115139;28;20540;-79
2023/11/28 06:24:51;;;;;;;17.73;3.97;;;12.80;95.40;;;;;;5104378;28;20032;-76
2023/11/28 06:27:17;;;;;;;17.23;4.07;;;12.80;95.40;;;;;;5126103;28;20035;-80
2023/11/28 06:29:43;;;;;;;23.70;3.97;;;12.80;95.50;;;;;;5118950;28;20043;-80
2023/11/28 06:32:09;;;;;;;23.23;4.38;;;12.80;95.60;;;;;;5137149;28;20065;-80
2023/11/28 06:34:35;;;;;;;18.30;4.53;;;12.80;95.50;;;;;;5107944;28;20080;-81
2023/11/28 06:37:01;;;;;;;18.63;3.67;;;12.80;95.50;;;;;;5097239;28;20114;-81
2023/11/28 06:39:27;;;;;;;21.27;4.05;;;12.90;95.50;;;;;;5096451;28;20047;-81
2023/11/28 06:41:53;;;;;;;22.27;4.85;;;12.80;95.40;;;;;;5096209;28;20032;-81
2023/11/28 06:44:20;;;;;;;23.35;4.18;;;12.80;95.50;;;;;;5102721;28;20043;-83
2023/11/28 06:46:49;;;;;;;24.63;5.40;;;12.90;95.50;;;;;;5105892;28;20055;-82
2023/11/28 06:49:15;;;;;;;21.40;4.28;;;12.90;95.60;;;;;;5104366;28;20031;-81
2023/11/28 06:51:41;;;;;;;24.90;4.68;;;12.90;95.60;;;;;;5106890;28;20530;-83
2023/11/28 06:54:10;;;;;;;19.83;4.38;;;12.90;95.60;;;;;;5105652;28;20036;-79
2023/11/28 06:56:36;;;;;;;20.88;5.18;;;12.90;95.50;;;;;;5103695;28;20039;-82
2023/11/28 06:59:01;;;;;;;17.05;3.95;;;13.00;95.40;;;;;;5095950;28;20029;-83
2023/11/28 07:01:28;;;;;;;32.22;5.10;;;13.10;95.30;;;;;;5096241;28;20039;-82
2023/11/28 07:03:54;;;;;;;24.98;4.35;;;13.20;95.20;;;;;;5096349;28;20035;-82
2023/11/28 07:06:20;;;;;;;20.02;5.03;;;13.20;95.00;;;;;;5095577;28;20093;-82
2023/11/28 07:08:46;;;;;;;18.63;4.47;;;13.20;95.00;;;;;;5096005;28;20097;-80
2023/11/28 07:11:21;;;;;;;23.52;4.85;;;13.20;94.90;;;;;;5096172;28;20472;-83
2023/11/28 07:13:47;;;;;;;20.58;4.40;;;13.20;95.10;;;;;;5100973;28;20569;-82
2023/11/28 07:16:17;;;;;;;21.25;5.15;;;13.30;95.10;;;;;;5116353;28;20036;-82
2023/11/28 07:18:44;;;;;;;26.50;4.50;;;13.40;94.90;;;;;;5116525;28;20032;-82
2023/11/28 07:21:11;;;;;;;21.88;4.80;;;13.40;94.80;;;;;;5116131;28;20464;-81
2023/11/28 07:23:37;;;;;;;15.07;3.95;;;13.50;94.70;;;;;;5116356;28;20139;-82
2023/11/28 07:26:09;;;;;;;16.13;4.10;;;13.50;94.60;;;;;;5115619;28;20059;-80
2023/11/28 07:28:35;;;;;;;23.92;4.80;;;13.50;94.70;;;;;;5115586;28;20042;-82
2023/11/28 07:31:01;;;;;;;23.83;6.60;;;13.50;94.70;;;;;;5112310;28;20032;-82
2023/11/28 07:33:27;;;;;;;18.60;4.97;;;13.50;94.70;;;;;;5115221;28;20032;-80
2023/11/28 07:35:52;;;;;;;24.00;5.30;;;13.50;94.60;;;;;;5108518;28;20036;-81
2023/11/28 07:38:21;;;;;;;20.95;5.15;;;13.50;94.60;;;;;;5112058;28;20023;-81
2023/11/28 07:40:48;;;;;;;17.30;4.10;;;13.60;94.70;;;;;;5096886;28;20464;-82
2023/11/28 07:43:13;;;;;;;18.35;4.65;;;13.60;94.70;;;;;;5115097;28;20034;-82
2023/11/28 07:45:40;;;;;;;28.65;6.30;;;13.70;94.60;;;;;;5112008;28;20119;-82
2023/11/28 07:48:06;;;;;;;27.13;5.03;;;13.70;94.50;;;;;;5095085;28;20059;-82
2023/11/28 07:50:32;;;;;;;23.27;4.55;;;13.80;94.50;;;;;;5095005;28;20534;-81
2023/11/28 07:52:59;;;;;;;23.17;4.28;;;13.80;94.40;;;;;;5103543;28;20055;-83
2023/11/28 07:55:24;;;;;;;27.27;5.10;;;13.90;94.40;;;;;;5120588;28;20497;-82
2023/11/28 07:57:50;;;;;;;20.00;4.47;;;13.90;94.50;;;;;;5090326;28;20119;-82
2023/11/28 08:00:16;;;;;;;23.55;4.63;;;14.00;94.40;;;;;;5093069;28;20028;-81
2023/11/28 08:02:42;;;;;;;18.63;4.28;;;14.10;94.30;;;;;;5095043;28;20059;-80
2023/11/28 08:05:08;;;;;;;22.75;4.75;;;14.20;94.30;;;;;;5093014;28;20181;-78
2023/11/28 08:07:34;;;;;;;18.45;4.53;;;14.40;94.10;;;;;;5089658;28;20055;-77
2023/11/28 08:10:00;;;;;;;24.92;4.95;;;14.50;93.90;;;;;;5081080;28;20036;-79
2023/11/28 08:12:28;;;;;;;29.63;5.50;;;14.60;94.00;;;;;;5074831;28;20110;-79
2023/11/28 08:14:54;;;;;;;24.40;5.53;;;14.70;93.80;;;;;;5072979;28;20083;-78
2023/11/28 08:17:20;;;;;;;24.15;4.47;;;14.80;93.70;;;;;;5075062;28;20051;-79
2023/11/28 08:19:46;;;;;;;23.02;4.80;;;14.80;93.70;;;;;;5076053;28;20032;-78
2023/11/28 08:22:12;;;;;;;21.88;5.10;;;14.80;93.60;;;;;;5076339;28;20035;-78
2023/11/28 08:24:38;;;;;;;21.95;4.20;;;14.80;93.70;;;;;;5094636;28;20036;-80
2023/11/28 08:27:04;;;;;;;29.08;5.70;;;14.80;93.70;;;;;;5076637;28;20538;-79
2023/11/28 08:29:30;;;;;;;22.60;4.80;;;14.90;93.60;;;;;;5075886;28;20032;-77
2023/11/28 08:31:58;;;;;;;27.08;4.72;;;14.90;93.60;;;;;;5094002;28;20168;-78
2023/11/28 08:34:24;;;;;;;22.00;4.60;;;15.00;93.70;;;;;;5093912;28;20039;-79
2023/11/28 08:36:51;;;;;;;27.52;4.65;;;15.00;93.60;;;;;;5093579;28;20032;-78
2023/11/28 08:39:17;;;;;;;25.00;4.97;;;15.10;93.60;;;;;;5093935;28;20021;-79
2023/11/28 08:41:42;;;;;;;26.80;5.20;;;15.10;93.50;;;;;;5093844;28;20051;-79
2023/11/28 08:44:09;;;;;;;24.10;5.57;;;15.20;93.50;;;;;;5093786;28;20078;-79
2023/11/28 08:46:37;;;;;;;32.13;5.95;;;15.30;93.50;;;;;;5092686;28;20040;-80
2023/11/28 08:49:03;;;;;;;30.08;5.00;;;15.40;93.40;;;;;;5093160;28;20023;-79
2023/11/28 08:51:29;;;;;;;25.27;4.78;;;15.50;93.30;;;;;;5093847;28;20505;-78
2023/11/28 08:53:55;;;;;;;20.58;4.45;;;15.70;93.20;;;;;;5093217;28;20032;-78
2023/11/28 08:56:23;;;;;;;26.80;5.93;;;15.90;93.10;;;;;;5093596;28;20100;-80
2023/11/28 08:58:49;;;;;;;25.45;4.88;;;16.10;92.90;;;;;;5093694;28;20069;-78
2023/11/28 09:01:14;;;;;;;23.00;4.60;;;16.30;92.70;;;;;;5093658;28;20493;-79
2023/11/28 09:03:40;;;;;;;26.40;4.55;;;16.50;92.50;;;;;;5093764;28;20040;-79
2023/11/28 09:06:07;;;;;;;19.85;4.15;;;16.60;92.20;;;;;;5099804;28;20020;-79
2023/11/28 09:08:33;;;;;;;20.45;4.32;;;16.70;92.00;;;;;;5081714;28;20032;-79
2023/11/28 09:10:59;;;;;;;20.35;4.53;;;16.80;91.90;;;;;;5114818;28;20017;-78
2023/11/28 09:13:25;;;;;;;20.00;3.92;;;16.90;91.80;;;;;;5102930;28;20046;-78
2023/11/28 09:15:51;;;;;;;19.42;3.55;;;17.00;91.50;;;;;;5093376;28;20035;-78
2023/11/28 09:18:16;;;;;;;19.50;3.65;;;17.00;91.40;;;;;;5093062;28;20039;-80
2023/11/28 09:20:42;;;;;;;20.17;4.57;;;16.90;91.10;;;;;;5092971;28;20035;-80
2023/11/28 09:23:08;;;;;;;16.77;4.10;;;16.90;91.00;;;;;;5093531;28;20378;-79
2023/11/28 09:25:33;;;;;;;16.15;3.25;;;16.60;91.20;;;;;;5092873;28;20032;-80
2023/11/28 09:28:00;;;;;;;13.00;3.10;;;16.30;90.90;;;;;;5093236;28;20051;-79
2023/11/28 09:30:25;;;;;;;15.20;2.28;;;16.00;90.60;;;;;;5091800;28;20121;-76
2023/11/28 09:32:51;;;;;;;12.75;2.92;;;15.60;90.50;;;;;;5087594;28;20584;-80
2023/11/28 09:35:18;;;;;;;15.48;2.65;;;15.20;90.50;;;;;;5066052;28;20044;-80
2023/11/28 09:37:43;;;;;;;6.47;1.80;;;14.80;90.80;;;;;;5092212;28;20047;-81
2023/11/28 09:40:09;;;;;;;10.73;2.05;;;14.50;90.60;;;;;;5061950;28;20119;-83
2023/11/28 09:42:39;;;;;;;8.48;2.55;;;14.30;90.50;;;;;;5073750;28;20037;-82
2023/11/28 09:45:05;;;;;;;9.80;2.08;;;14.30;90.70;;;;;;5074670;28;20040;-81
2023/11/28 09:47:36;;;;;;;7.38;2.15;;;14.30;90.60;;;;;;5083962;28;20040;-82
2023/11/28 09:50:05;;;;;;;6.20;2.40;;;14.50;90.80;;;;;;5104407;28;20032;-81
2023/11/28 09:52:35;;;;;;;6.78;2.35;;;14.60;90.60;;;;;;5102551;28;20062;-79
2023/11/28 09:55:01;;;;;;;9.02;3.50;;;14.80;90.70;;;;;;5103009;28;20027;-83
2023/11/28 09:57:34;;;;;;;9.25;2.42;;;14.90;90.50;;;;;;5101543;28;20042;-83
2023/11/28 09:59:59;;;;;;;7.13;3.13;;;15.00;90.30;;;;;;5098232;28;20034;-82
2023/11/28 10:02:30;;;;;;;9.52;2.72;;;15.10;90.20;;;;;;5099397;28;20035;-82
2023/11/28 10:04:56;;;;;;;9.55;2.85;;;15.10;90.20;;;;;;5098508;28;20028;-82
2023/11/28 10:07:31;;;;;;;7.10;2.60;;;15.20;90.10;;;;;;5100724;28;20039;-80
2023/11/28 10:09:59;;;;;;;14.25;3.53;;;15.20;90.20;;;;;;5099602;28;20077;-82
2023/11/28 10:12:25;;;;;;;8.23;2.30;;;15.20;90.20;;;;;;5103875;28;20048;-82
2023/11/28 10:14:51;;;;;;;7.75;2.55;;;15.20;90.40;;;;;;5093382;28;20492;-82
2023/11/28 10:17:17;;;;;;;10.57;2.72;;;15.10;90.20;;;;;;5092113;28;20422;-82
2023/11/28 10:19:45;;;;;;;11.95;2.65;;;15.10;90.40;;;;;;5092235;28;20009;-82
2023/11/28 10:22:12;;;;;;;14.68;2.90;;;15.10;90.40;;;;;;5092004;28;20033;-82
2023/11/28 10:24:37;;;;;;;9.05;2.65;;;15.10;90.50;;;;;;5085713;28;20036;-82
2023/11/28 10:27:03;;;;;;;8.32;2.10;;;15.10;90.50;;;;;;5072157;28;20037;-81
2023/11/28 10:29:29;;;;;;;11.38;2.88;;;15.10;90.50;;;;;;5072255;28;20029;-79
2023/11/28 10:31:56;;;;;;;10.30;2.85;;;15.10;90.40;;;;;;5072492;28;20035;-83
2023/11/28 10:34:21;;;;;;;9.27;2.75;;;15.20;90.40;;;;;;5082408;28;20101;-81
2023/11/28 10:36:48;;;;;;;13.23;3.45;;;15.20;90.40;;;;;;5101841;28;20025;-81
2023/11/28 10:39:18;;;;;;;11.52;2.78;;;15.30;90.40;;;;;;5100052;28;20077;-80
2023/11/28 10:41:44;;;;;;;12.90;3.53;;;15.30;90.30;;;;;;5098251;28;20542;-83
2023/11/28 10:44:10;;;;;;;10.48;3.72;;;15.30;90.30;;;;;;5101732;28;20028;-86
2023/11/28 10:46:38;;;;;;;9.40;3.50;;;15.20;90.20;;;;;;5098285;28;20032;-81
2023/11/28 10:49:07;;;;;;;15.15;4.28;;;15.20;90.50;;;;;;5090155;28;20043;-83
2023/11/28 10:51:35;;;;;;;25.23;11.93;;;15.10;90.70;;;;;;5100411;28;20137;-82
2023/11/28 10:54:07;;;;;;;18.60;8.60;;;15.10;90.80;;;;;;5082939;28;20446;-80
2023/11/28 10:56:39;;;;;;;10.40;3.90;;;15.10;90.60;;;;;;5099315;28;20078;-84
2023/11/28 10:59:07;;;;;;;15.70;4.00;;;15.00;90.80;;;;;;5100547;28;20027;-83
2023/11/28 11:01:34;;;;;;;12.30;3.85;;;15.00;90.80;;;;;;5101261;28;20494;-85
2023/11/28 11:04:00;;;;;;;15.82;3.17;;;15.10;90.80;;;;;;5095376;28;20204;-81
2023/11/28 11:06:25;;;;;;;21.30;4.18;;;15.20;90.50;;;;;;5101382;28;20123;-84
2023/11/28 11:08:52;;;;;;;9.75;3.42;;;15.40;90.30;;;;;;5099917;28;20044;-88
2023/11/28 11:11:19;;;;;;;14.90;5.90;;;15.50;89.40;;;;;;5091331;28;20529;-82
2023/11/28 11:13:56;;;;;;;9.63;3.78;;;15.70;89.20;;;;;;5110474;28;20048;-82
2023/11/28 11:16:40;;;;;;;20.20;4.47;;;15.80;89.00;;;;;;5118494;28;20032;-83
2023/11/28 11:19:08;;;;;;;13.73;3.47;;;16.00;89.30;;;;;;5115681;28;20028;-84
2023/11/28 11:21:48;;;;;;;14.77;4.03;;;16.10;89.00;;;;;;5104984;28;20258;-86
2023/11/28 11:24:19;;;;;;;15.57;4.90;;;16.20;88.30;;;;;;5101889;28;20122;-82
2023/11/28 11:26:46;;;;;;;23.13;3.90;;;16.40;88.30;;;;;;5104333;28;20036;-81
2023/11/28 11:29:39;;;;;;;16.27;3.17;;;16.50;87.20;;;;;;5086403;28;20501;-83
2023/11/28 11:32:11;;;;;;;15.07;3.53;;;16.60;82.40;;;;;;5101125;28;20028;-79
2023/11/28 11:34:44;;;;;;;14.85;3.10;;;16.60;80.00;;;;;;5102436;28;20062;-84
2023/11/28 11:37:19;;;;;;;15.75;3.47;;;16.70;77.90;;;;;;5100801;28;20044;-84
2023/11/28 11:39:51;;;;;;;11.32;2.72;;;16.80;77.20;;;;;;5097379;28;20075;-82
2023/11/28 11:42:23;;;;;;;13.88;2.95;;;16.90;75.90;;;;;;5078329;28;20032;-84
2023/11/28 11:44:57;;;;;;;8.82;2.45;;;16.90;74.90;;;;;;5096398;28;20047;-82
2023/11/28 11:47:28;;;;;;;11.98;2.50;;;17.00;72.20;;;;;;5096582;28;20044;-81
2023/11/28 11:49:55;;;;;;;13.45;2.60;;;17.10;71.00;;;;;;5077570;28;20039;-85
2023/11/28 11:52:24;;;;;;;15.65;2.55;;;17.10;69.40;;;;;;5094242;28;20047;-80
2023/11/28 11:54:51;;;;;;;12.82;2.50;;;17.10;68.90;;;;;;5093752;28;20047;-78
2023/11/28 11:57:19;;;;;;;9.63;2.60;;;17.20;68.50;;;;;;5094274;28;20113;-78
2023/11/28 11:59:45;;;;;;;10.55;2.58;;;17.30;68.50;;;;;;5094214;28;20378;-79
2023/11/28 12:02:11;;;;;;;8.70;2.30;;;17.30;67.30;;;;;;5094266;28;20034;-79
2023/11/28 12:04:42;;;;;;;11.93;2.75;;;17.30;66.70;;;;;;5088863;28;20036;-79
2023/11/28 12:07:12;;;;;;;10.85;2.45;;;17.40;65.40;;;;;;5093756;28;20046;-85
2023/11/28 13:13:54;;;;;;;13.00;2.92;;;18.00;61.20;;;;;;5031713;28;20413;-78
2023/11/28 13:16:20;;;;;;;12.40;2.97;;;17.90;61.40;;;;;;5033664;28;20056;-77
2023/11/28 13:18:45;;;;;;;12.95;2.65;;;17.90;61.00;;;;;;5033349;28;20486;-79
2023/11/28 13:21:11;;;;;;;13.93;2.70;;;17.90;60.60;;;;;;5033318;28;20112;-78
2023/11/28 13:23:37;;;;;;;11.13;3.00;;;17.90;61.00;;;;;;5033094;28;20080;-79
2023/11/28 13:26:03;;;;;;;10.70;2.58;;;17.80;60.60;;;;;;5033218;28;20033;-79
2023/11/28 13:28:30;;;;;;;15.90;3.25;;;17.90;61.10;;;;;;5033109;28;20045;-78
2023/11/28 13:30:57;;;;;;;12.82;2.80;;;17.90;60.60;;;;;;5033665;28;20068;-77
2023/11/28 13:33:26;;;;;;;14.35;3.50;;;17.90;60.80;;;;;;5032184;28;20044;-77
2023/11/28 13:35:56;;;;;;;10.05;2.85;;;17.90;61.40;;;;;;5032699;28;20041;-78
2023/11/28 13:38:23;;;;;;;17.33;3.25;;;17.90;61.00;;;;;;5032714;28;20151;-78